Kansas City, MO (64101)

1:26 AM CDT on August 30, 2015 (GMT -0500)
Midtown Hospital Hill | | Change Station
CLOSE
Current Station
Personal Weather Station
Location: Kansas City, MO
Elevation: 984 ft
Nearby Weather Stations

Elev 984 ft 39.08 °N, 94.58 °W | Updated 13 minutes ago

Scattered Clouds
Scattered Clouds
68.5 °F
Feels Like 68.5 °F
N
0.0
Wind Variable Wind from SSE

Today
High -- | Low -- °F
--% Chance of Precip.
Yesterday
High -- | Low -- °F
Precip. -- in
6:45 AM 7:52 PM
Full, 100% visible
Pressure 30.01 in
Visibility 10.0 miles
Clouds Scattered Clouds 4500 ft
Dew Point 64 °F
Humidity 84%
Rainfall 0.00 in
Snow Depth Not available.
UV 0 out of 12
Pollen 8.40 out of 12
Air Quality Not available.
Flu Activity Not available.
METAR KMKC 300554Z 33003KT 10SM SCT045 21/19 A3003 RMK AO2 SLP162 T02110189 10244 20211 402720211 58002
Pressure 30.01 in
Visibility 10.0 miles
Clouds Scattered Clouds 4500 ft
Dew Point 64 °F
Humidity 84%
Rainfall 0.00 in
Snow Depth Not available.
UV 0 out of 12
Pollen 8.40 out of 12
Air Quality Not available.
Flu Activity Not available.
METAR KMKC 300554Z 33003KT 10SM SCT045 21/19 A3003 RMK AO2 SLP162 T02110189 10244 20211 402720211 58002

10-Day Weather Forecast

×

Almanac

Astronomy

Aug. 30, 2015 Rise Set
Actual Time
Civil Twilight
Nautical Twilight
Astronomical Twilight
Moon
Length of Visible Light
Length of Day
Tomorrow will be .
, % of the Moon is Illuminated

Today's Extremes

State Highs State Lows

Community

WunderPhotos

Upload Photos

1,850,904 photos uploaded!

WunderBlogs® & News

Nearby

Air Quality

  Air Quality AQ Index Pollutant
Not available.

Snow Depth

Station Depth Elevation

Earthquake Activity

City Distance Mag. Time & Date
Minimum magnitude displayed is 2.5.

Coastal Water Temperatures

Place Temperature

Stations

Nearby Weather Stations

Station Location Temp. Windchill Dew Point Humidity Wind Precip. Elev Updated Type